KCOS/COS METAR and TAF weather

Enter ICAO airport designator
Station Type Date Time Source
KCOS METAR 2018/12/13 14:54 UTC NOAA

KCOS 131454Z 32017G26KT 10SM FEW070 FEW180 M03/M13 A3020 RMK AO2 PK WND 33026/1451 SLP252 T10331128 51023


Station Type Date Time Source
KCOS Decoded METAR 2018/12/13 14:54 UTC NOAA

COLORADO SPRINGS MUNI, CO, United States (KCOS) 38-49N 104-43W 1856M
Dec 13, 2018 - 09:54 AM EST / 2018.12.13 1454 UTC
Wind: from the NW (320 degrees) at 20 MPH (17 KT) gusting to 30 MPH (26 KT):0
Visibility: 10 mile(s):0
Sky conditions: mostly clear
Temperature: 26.1 F (-3.3 C)
Windchill: 12 F (-11 C):1
Dew Point: 9.0 F (-12.8 C)
Relative Humidity: 47%
Pressure (altimeter): 30.2 in. Hg (1022 hPa)
Pressure tendency: 0.07 inches (2.3 hPa) higher than three hours ago
ob: KCOS 131454Z 32017G26KT 10SM FEW070 FEW180 M03/M13 A3020 RMK AO2 PK WND 33026/1451 SLP252 T10331128 51023
cycle: 15

Station Type Date Time Source
KCOS TAF 2018/12/13 12:24 UTC NOAA

TAF KCOS 131122Z 1312/1412 34015G25KT P6SM FEW120
FM132000 36012G22KT P6SM SKC
FM132300 01007KT P6SM SKC
FM140100 36006KT P6SM FEW250


Example: see airport list